YM Venus — 9HCB8 — position and weather

sailwx.info

Track history (hours):
 
Tides and Currents Weather Stations Pressure Air Temp Water Temp Dewpoint Dewpoint Depression Visibility Wind Speed Wind Dir Waves Ship Positions

YM Venus

Last reported at 2014-Aug-30 16:07 UTC. Time now 2014-Aug-30 18:34 UTC.
Position N 40°54' E 028°48'.

Length 105 m; draft 6.5 m.

Type: Tanker. MMSI: 215826000.

Date/timePositionNaut miles runAvg speedWind from/ knotsBaromVisibWave heightAir tempDewpointWater temp
2014-Aug-30 16:07N 40°54' E 028°48'5 8.1
2014-Aug-30 15:32N 40°56' E 028°54'1 0.7
2014-Aug-30 14:31N 40°56' E 028°53'1 0.6
2014-Aug-30 13:29N 40°57' E 028°53'0 0.3
2014-Aug-30 12:32N 40°57' E 028°53'0 0.0
2014-Aug-30 05:34N 40°57' E 028°53'  
2014-Aug-25 05:25N 40°60' E 028°60'6 6.6
2014-Aug-25 04:33N 40°57' E 028°53'0 0.0
2014-Aug-25 03:32N 40°57' E 028°53'0 0.0
2014-Aug-25 02:31N 40°57' E 028°53'0 0.0
2014-Aug-25 01:30N 40°57' E 028°53'0 0.0
2014-Aug-25 00:33N 40°57' E 028°53'0 0.0
2014-Aug-24 23:33N 40°57' E 028°53'0 0.0
2014-Aug-24 22:33N 40°57' E 028°53'0 0.0
2014-Aug-24 21:33N 40°57' E 028°53'0 0.0
2014-Aug-24 20:31N 40°57' E 028°53'0 0.0
2014-Aug-24 19:33N 40°57' E 028°53'0 0.0
2014-Aug-24 18:33N 40°57' E 028°53'0 0.0
2014-Aug-24 17:32N 40°57' E 028°53'0 0.0
2014-Aug-24 16:31N 40°57' E 028°53'0 0.0
2014-Aug-24 15:33N 40°57' E 028°53'0 0.0
2014-Aug-24 14:33N 40°57' E 028°53'0 0.1
2014-Aug-24 13:33N 40°57' E 028°53'0 0.0
2014-Aug-24 12:33N 40°57' E 028°53'3 2.9
2014-Aug-24 11:32N 40°55' E 028°51'13411.0
2014-Aug-23 23:20N 40°01' E 026°10'23211.7
2014-Aug-23 03:31N 36°42' E 023°36'1212.3
2014-Aug-23 02:33N 36°32' E 023°28'1212.1
2014-Aug-23 01:33N 36°22' E 023°19'1210.0
2014-Aug-23 00:20N 36°22' E 023°04'  
Track history (hours):
 
Tides and Currents Weather Stations Pressure Air Temp Water Temp Dewpoint Dewpoint Depression Visibility Wind Speed Wind Dir Waves Ship Positions

YM Venus

Last reported at 2014-Aug-30 16:07 UTC. Time now 2014-Aug-30 18:34 UTC.
Position N 40°54' E 028°48'.

Length 105 m; draft 6.5 m.

Type: Tanker. MMSI: 215826000.

Date/timePositionNaut miles runAvg speedWind from/ knotsBaromVisibWave heightAir tempDewpointWater temp
2014-Aug-30 16:07N 40°54' E 028°48'5 8.1
2014-Aug-30 15:32N 40°56' E 028°54'1 0.7
2014-Aug-30 14:31N 40°56' E 028°53'1 0.6
2014-Aug-30 13:29N 40°57' E 028°53'0 0.3
2014-Aug-30 12:32N 40°57' E 028°53'0 0.0
2014-Aug-30 05:34N 40°57' E 028°53'  
2014-Aug-25 05:25N 40°60' E 028°60'6 6.6
2014-Aug-25 04:33N 40°57' E 028°53'0 0.0
2014-Aug-25 03:32N 40°57' E 028°53'0 0.0
2014-Aug-25 02:31N 40°57' E 028°53'0 0.0
2014-Aug-25 01:30N 40°57' E 028°53'0 0.0
2014-Aug-25 00:33N 40°57' E 028°53'0 0.0
2014-Aug-24 23:33N 40°57' E 028°53'0 0.0
2014-Aug-24 22:33N 40°57' E 028°53'0 0.0
2014-Aug-24 21:33N 40°57' E 028°53'0 0.0
2014-Aug-24 20:31N 40°57' E 028°53'0 0.0
2014-Aug-24 19:33N 40°57' E 028°53'0 0.0
2014-Aug-24 18:33N 40°57' E 028°53'0 0.0
2014-Aug-24 17:32N 40°57' E 028°53'0 0.0
2014-Aug-24 16:31N 40°57' E 028°53'0 0.0
2014-Aug-24 15:33N 40°57' E 028°53'0 0.0
2014-Aug-24 14:33N 40°57' E 028°53'0 0.1
2014-Aug-24 13:33N 40°57' E 028°53'0 0.0
2014-Aug-24 12:33N 40°57' E 028°53'3 2.9
2014-Aug-24 11:32N 40°55' E 028°51'13411.0
2014-Aug-23 23:20N 40°01' E 026°10'23211.7
2014-Aug-23 03:31N 36°42' E 023°36'1212.3
2014-Aug-23 02:33N 36°32' E 023°28'1212.1
2014-Aug-23 01:33N 36°22' E 023°19'1210.0
2014-Aug-23 00:20N 36°22' E 023°04'  

Dump ship's entire track history